Terminal Aerodrome Forecast
Issued by NWS Caribou, ME

Current Version | Previous Version | Text Only | Print | Product List | Glossary On
Versions: 1 2 3 4 5 6 7 8 9 10 11 12 13 14 15 16 17 18
000
FTUS41 KCAR 160500
TAFCAR
TAF
KCAR 160523Z 1606/1706 VRB03KT P6SM SCT045 BKN080
     FM160900 18004KT P6SM -SHRA OVC035
     FM161200 19005KT 6SM -SHRA BR OVC025
     FM161400 21007KT 4SM -SHRA BR OVC015
     FM161700 22007KT 6SM -SHRA BKN022
     FM161900 23007KT P6SM VCSH BKN030
     FM162100 24007KT P6SM BKN040
     FM170000 24006KT P6SM SCT045 BKN200=

USA.gov is the U.S. government's official web portal to all federal, state and local government web resources and services.